createdAt,value
2019-04-20T00:00:58.531Z,9.78
2019-04-20T00:03:35.509Z,9.67
2019-04-20T00:06:01.343Z,9.58
2019-04-20T00:08:36.115Z,9.48
2019-04-20T00:11:10.549Z,9.42
2019-04-20T00:13:47.640Z,9.42
2019-04-20T00:16:08.407Z,9.41
2019-04-20T00:18:43.167Z,9.35
2019-04-20T00:21:29.087Z,9.35
2019-04-20T00:24:09.233Z,9.28
2019-04-20T00:29:29.708Z,9.18
2019-04-20T00:31:53.213Z,9.08
2019-04-20T00:34:21.281Z,9.01
2019-04-20T00:36:45.368Z,8.94
2019-04-20T00:39:17.161Z,9.01
2019-04-20T00:41:53.701Z,8.97
2019-04-20T00:44:23.321Z,8.92
2019-04-20T00:47:05.883Z,8.94
2019-04-20T00:49:34.896Z,8.96
2019-04-20T00:52:26.508Z,8.88
2019-04-20T00:54:26.354Z,8.78
2019-04-20T00:57:09.370Z,8.72
2019-04-20T00:59:42.923Z,8.69
2019-04-20T01:02:18.017Z,8.63
2019-04-20T01:04:56.586Z,8.63
2019-04-20T01:07:20.286Z,8.66
2019-04-20T01:09:58.378Z,8.61
2019-04-20T01:12:31.924Z,8.59
2019-04-20T01:15:05.578Z,8.45
2019-04-20T01:17:34.048Z,8.33
2019-04-20T01:20:03.968Z,8.23
2019-04-20T01:22:40.277Z,8.21
2019-04-20T01:25:14.136Z,8.22
2019-04-20T01:27:51.251Z,8.20
2019-04-20T01:30:17.216Z,8.11
2019-04-20T01:32:55.076Z,7.98
2019-04-20T01:35:31.999Z,7.93
2019-04-20T01:38:00.277Z,8.07
2019-04-20T01:40:16.988Z,8.05
2019-04-20T01:42:46.914Z,8.10
2019-04-20T01:45:22.433Z,8.06
2019-04-20T01:47:53.076Z,8.08
2019-04-20T01:50:24.744Z,8.04
2019-04-20T01:53:01.528Z,8.05
2019-04-20T01:55:55.576Z,8.05
2019-04-20T01:58:17.496Z,8.00
2019-04-20T02:01:00.789Z,8.00
2019-04-20T02:03:48.478Z,8.04
2019-04-20T02:06:18.835Z,8.06
2019-04-20T02:08:52.821Z,8.08
2019-04-20T02:11:26.069Z,8.07
2019-04-20T02:13:56.340Z,8.10
2019-04-20T02:16:28.920Z,8.17
2019-04-20T02:19:10.693Z,8.25
2019-04-20T02:21:42.224Z,8.19
2019-04-20T02:24:02.318Z,8.18
2019-04-20T02:26:28.240Z,8.24
2019-04-20T02:29:29.527Z,8.33
2019-04-20T02:32:12.060Z,8.41
2019-04-20T02:40:42.291Z,8.59
2019-04-20T02:45:33.591Z,8.61
2019-04-20T02:48:00.854Z,8.62
2019-04-20T02:50:36.168Z,8.62
2019-04-20T02:53:11.442Z,8.59
2019-04-20T02:55:31.709Z,8.53
2019-04-20T03:00:31.360Z,8.38
2019-04-20T03:02:53.086Z,8.33
2019-04-20T03:05:25.647Z,8.25
2019-04-20T03:08:04.324Z,8.17
2019-04-20T03:10:43.008Z,8.09
2019-04-20T03:13:08.045Z,8.17
2019-04-20T03:15:38.296Z,8.14
2019-04-20T03:18:12.118Z,8.05
2019-04-20T03:20:43.434Z,7.94
2019-04-20T03:23:23.491Z,7.80
2019-04-20T03:26:11.038Z,7.74
2019-04-20T03:28:53.909Z,7.63
2019-04-20T03:34:27.515Z,7.32
2019-04-20T03:36:41.534Z,7.24
2019-04-20T03:39:07.014Z,7.19
2019-04-20T03:41:25.376Z,7.15
2019-04-20T03:43:49.742Z,7.08
2019-04-20T03:46:30.076Z,7.03
2019-04-20T03:49:10.677Z,7.10
2019-04-20T03:51:47.205Z,7.00
2019-04-20T03:54:18.519Z,6.95
2019-04-20T03:57:12.475Z,6.90
2019-04-20T03:59:41.288Z,6.87
2019-04-20T04:02:52.807Z,6.78
2019-04-20T04:05:22.236Z,6.65
2019-04-20T04:07:41.476Z,6.51
2019-04-20T04:10:22.007Z,6.46
2019-04-20T04:13:14.849Z,6.41
2019-04-20T04:15:52.221Z,6.36
2019-04-20T04:18:26.009Z,6.24
2019-04-20T04:20:58.631Z,6.26
2019-04-20T04:23:40.408Z,6.30
2019-04-20T04:26:08.502Z,6.40
2019-04-20T04:28:42.355Z,6.49
2019-04-20T04:31:16.389Z,6.56
2019-04-20T04:36:15.330Z,6.66
2019-04-20T04:38:53.335Z,6.73
2019-04-20T04:41:22.899Z,6.82
2019-04-20T04:43:55.234Z,6.89
2019-04-20T04:46:05.971Z,7.09
2019-04-20T04:48:41.154Z,7.23
2019-04-20T04:51:14.928Z,7.43
2019-04-20T04:53:47.900Z,7.59
2019-04-20T04:56:15.157Z,7.73
2019-04-20T04:58:42.784Z,7.79
2019-04-20T05:01:18.558Z,7.86
2019-04-20T05:04:13.057Z,7.88
2019-04-20T05:06:35.552Z,7.89
2019-04-20T05:08:55.001Z,7.97
2019-04-20T05:11:22.072Z,8.05
2019-04-20T05:13:58.598Z,8.07
2019-04-20T05:16:40.965Z,8.11
2019-04-20T05:19:18.782Z,8.06
2019-04-20T05:22:05.408Z,8.33
2019-04-20T05:24:39.078Z,8.60
2019-04-20T05:27:54.718Z,8.80
2019-04-20T05:30:01.321Z,9.01
2019-04-20T05:32:42.799Z,9.16
2019-04-20T05:35:26.892Z,9.38
2019-04-20T05:38:02.654Z,9.48
2019-04-20T05:40:26.234Z,9.68
2019-04-20T05:43:03.147Z,9.80
2019-04-20T05:45:31.163Z,9.88
2019-04-20T05:48:05.139Z,10.01
2019-04-20T05:50:36.569Z,10.17
2019-04-20T05:53:12.967Z,10.42
2019-04-20T05:55:43.256Z,10.62
2019-04-20T05:58:17.801Z,10.87
2019-04-20T06:00:57.434Z,11.14
2019-04-20T06:03:19.041Z,11.38
2019-04-20T06:05:59.269Z,11.62
2019-04-20T06:08:32.028Z,11.83
2019-04-20T06:10:56.482Z,12.01
2019-04-20T06:13:22.903Z,12.22
2019-04-20T06:16:07.348Z,12.38
2019-04-20T06:18:44.467Z,12.58
2019-04-20T06:21:35.386Z,12.81
2019-04-20T06:24:03.791Z,13.03
2019-04-20T06:26:49.056Z,13.23
2019-04-20T06:29:10.199Z,13.44
2019-04-20T06:31:48.655Z,13.71
2019-04-20T06:36:57.181Z,14.19
2019-04-20T06:42:10.824Z,14.57
2019-04-20T06:44:34.380Z,14.76
2019-04-20T06:47:16.179Z,14.95
2019-04-20T06:49:53.806Z,15.12
2019-04-20T06:52:25.890Z,15.23
2019-04-20T06:55:05.182Z,15.35
2019-04-20T07:00:22.950Z,15.48
2019-04-20T07:05:21.101Z,15.88
2019-04-20T07:07:51.526Z,15.99
2019-04-20T07:10:28.629Z,16.21
2019-04-20T07:12:52.499Z,16.33
2019-04-20T07:15:23.165Z,16.48
2019-04-20T07:18:03.221Z,16.72
2019-04-20T07:20:52.604Z,17.00
2019-04-20T07:23:22.354Z,17.00
2019-04-20T07:25:49.045Z,17.14
2019-04-20T07:28:29.285Z,17.35
2019-04-20T07:30:52.150Z,17.62
2019-04-20T07:33:27.010Z,17.85
2019-04-20T07:35:50.749Z,17.98
2019-04-20T07:40:56.185Z,18.01
2019-04-20T07:43:28.360Z,18.16
2019-04-20T07:46:02.766Z,18.37
2019-04-20T07:48:31.067Z,18.51
2019-04-20T07:50:56.843Z,18.53
2019-04-20T07:53:30.568Z,18.53
2019-04-20T07:56:09.172Z,18.71
2019-04-20T07:58:28.550Z,18.78
2019-04-20T08:01:23.555Z,18.89
2019-04-20T08:03:55.720Z,18.96
2019-04-20T08:06:17.468Z,18.97
2019-04-20T08:08:57.404Z,18.85
2019-04-20T08:11:27.256Z,18.90
2019-04-20T08:14:06.051Z,19.02
2019-04-20T08:19:05.284Z,19.22
2019-04-20T08:21:44.061Z,19.27
2019-04-20T08:24:07.037Z,19.51
2019-04-20T08:26:27.094Z,19.62
2019-04-20T08:29:18.822Z,19.73
2019-04-20T08:32:08.627Z,19.70
2019-04-20T08:34:45.313Z,19.69
2019-04-20T08:37:05.956Z,19.77
2019-04-20T08:39:53.893Z,19.71
2019-04-20T08:42:18.636Z,20.07
2019-04-20T08:47:30.550Z,20.47
2019-04-20T08:50:20.964Z,20.44
2019-04-20T08:55:19.888Z,20.35
2019-04-20T08:57:33.731Z,20.41
2019-04-20T09:00:06.573Z,20.65
2019-04-20T09:02:41.278Z,20.48
2019-04-20T09:05:29.505Z,20.73
2019-04-20T09:07:54.213Z,21.02
2019-04-20T09:10:40.775Z,21.04
2019-04-20T09:13:03.986Z,21.25
2019-04-20T09:15:21.139Z,21.37
2019-04-20T09:18:00.945Z,21.46
2019-04-20T09:20:41.249Z,21.45
2019-04-20T09:23:21.749Z,21.31
2019-04-20T09:26:09.121Z,21.34
2019-04-20T09:28:38.485Z,21.55
2019-04-20T09:31:20.196Z,21.59
2019-04-20T09:34:16.259Z,21.31
2019-04-20T09:36:51.618Z,21.55
2019-04-20T09:39:29.580Z,21.15
2019-04-20T09:42:01.218Z,21.38
2019-04-20T09:44:34.944Z,21.49
2019-04-20T09:47:03.290Z,21.57
2019-04-20T09:49:42.870Z,21.64
2019-04-20T09:52:17.255Z,21.84
2019-04-20T09:54:55.142Z,22.07
2019-04-20T09:57:32.243Z,22.30
2019-04-20T09:59:57.517Z,22.46
2019-04-20T10:02:21.274Z,22.51
2019-04-20T10:04:44.210Z,22.82
2019-04-20T10:07:18.001Z,23.01
2019-04-20T10:09:46.997Z,22.76
2019-04-20T10:12:17.607Z,22.60
2019-04-20T10:14:48.947Z,22.83
2019-04-20T10:17:20.109Z,23.27
2019-04-20T10:19:51.310Z,23.64
2019-04-20T10:22:22.564Z,23.57
2019-04-20T10:24:53.814Z,23.70
2019-04-20T10:27:24.333Z,23.70
2019-04-20T10:29:55.489Z,23.58
2019-04-20T10:32:36.283Z,24.02
2019-04-20T10:34:57.256Z,24.15
2019-04-20T10:37:31.553Z,24.20
2019-04-20T10:40:02.876Z,24.22
2019-04-20T10:42:32.683Z,24.49
2019-04-20T10:45:03.063Z,24.60
2019-04-20T10:47:34.939Z,24.97
2019-04-20T10:50:05.285Z,25.50
2019-04-20T10:52:36.067Z,25.55
2019-04-20T10:55:06.190Z,26.15
2019-04-20T10:57:37.599Z,27.01
2019-04-20T11:00:08.229Z,28.71
2019-04-20T11:02:39.603Z,31.30
2019-04-20T11:05:10.803Z,34.59
2019-04-20T11:07:40.865Z,37.24
2019-04-20T11:10:17.913Z,38.80
2019-04-20T11:12:42.220Z,40.74
2019-04-20T11:15:12.701Z,41.99
2019-04-20T11:17:43.550Z,40.58
2019-04-20T11:20:13.002Z,42.38
2019-04-20T11:22:42.215Z,42.62
2019-04-20T11:25:12.320Z,43.79
2019-04-20T11:27:41.191Z,45.84
2019-04-20T11:30:10.083Z,46.64
2019-04-20T11:32:40.105Z,46.94
2019-04-20T11:35:19.969Z,46.75
2019-04-20T11:37:40.502Z,48.02
2019-04-20T11:40:09.211Z,48.27
2019-04-20T11:42:37.880Z,48.72
2019-04-20T11:45:06.829Z,46.81
2019-04-20T11:47:35.710Z,46.57
2019-04-20T11:50:04.828Z,47.69
2019-04-20T11:52:38.848Z,49.23
2019-04-20T11:55:04.418Z,50.07
2019-04-20T11:57:33.535Z,49.45
2019-04-20T12:00:03.619Z,50.93
2019-04-20T12:02:44.360Z,52.05
2019-04-20T12:05:23.894Z,52.96
2019-04-20T12:07:53.658Z,53.99
2019-04-20T12:10:24.161Z,54.09
2019-04-20T12:12:55.418Z,54.45
2019-04-20T12:15:24.379Z,54.44
2019-04-20T12:17:53.692Z,52.41
2019-04-20T12:20:22.826Z,50.86
2019-04-20T12:22:52.617Z,52.14
2019-04-20T12:25:21.325Z,53.78
2019-04-20T12:27:54.048Z,54.78
2019-04-20T12:30:21.725Z,55.19
2019-04-20T12:32:55.496Z,55.54
2019-04-20T12:35:22.297Z,55.03
2019-04-20T12:37:51.434Z,54.71
2019-04-20T12:40:20.135Z,54.49
2019-04-20T12:42:50.850Z,56.33
2019-04-20T12:45:20.091Z,56.93
2019-04-20T12:47:51.422Z,57.49
2019-04-20T12:50:21.489Z,55.77
2019-04-20T12:52:50.391Z,54.39
2019-04-20T12:55:20.811Z,54.92
2019-04-20T12:57:50.324Z,55.86
2019-04-20T13:00:19.852Z,56.90
2019-04-20T13:02:49.468Z,57.42
2019-04-20T13:05:19.463Z,57.44
2019-04-20T13:07:54.528Z,58.26
2019-04-20T13:10:21.345Z,59.72
2019-04-20T13:13:10.259Z,60.90
2019-04-20T13:16:00.892Z,61.86
2019-04-20T13:18:39.185Z,61.78
2019-04-20T13:21:09.255Z,60.81
2019-04-20T13:23:38.240Z,61.26
2019-04-20T13:26:08.677Z,62.00
2019-04-20T13:28:37.852Z,62.53
2019-04-20T13:31:08.066Z,62.53
2019-04-20T13:33:37.060Z,61.11
2019-04-20T13:36:05.925Z,59.49
2019-04-20T13:38:36.185Z,59.08
2019-04-20T13:41:06.193Z,57.22
2019-04-20T13:43:35.537Z,58.68
2019-04-20T13:46:04.916Z,59.14
2019-04-20T13:48:34.895Z,59.96
2019-04-20T13:51:05.466Z,59.94
2019-04-20T13:53:35.576Z,59.24
2019-04-20T13:56:05.460Z,58.37
2019-04-20T13:58:45.689Z,58.39
2019-04-20T14:01:36.984Z,57.94
2019-04-20T14:04:15.142Z,59.29
2019-04-20T14:06:43.862Z,60.77
2019-04-20T14:09:12.571Z,59.57
2019-04-20T14:11:43.328Z,60.83
2019-04-20T14:14:13.119Z,61.56
2019-04-20T14:16:43.189Z,59.45
2019-04-20T14:19:14.256Z,58.81
2019-04-20T14:21:43.918Z,59.71
2019-04-20T14:24:13.099Z,58.57
2019-04-20T14:26:43.711Z,59.20
2019-04-20T14:29:12.795Z,58.93
2019-04-20T14:31:41.855Z,59.24
2019-04-20T14:34:10.976Z,58.87
2019-04-20T14:36:41.143Z,59.78
2019-04-20T14:39:10.161Z,61.81
2019-04-20T14:41:40.375Z,62.09
2019-04-20T14:44:10.325Z,61.98
2019-04-20T14:46:39.995Z,61.95
2019-04-20T14:49:10.444Z,60.30
2019-04-20T14:51:41.579Z,58.46
2019-04-20T14:54:11.740Z,53.33
2019-04-20T14:56:43.365Z,49.30
2019-04-20T14:59:29.470Z,44.07
2019-04-20T15:02:08.452Z,42.95
2019-04-20T15:04:37.400Z,41.71
2019-04-20T15:07:06.686Z,39.26
2019-04-20T15:09:38.728Z,37.25
2019-04-20T15:12:06.891Z,36.80
2019-04-20T15:14:36.762Z,37.23
2019-04-20T15:17:06.802Z,36.07
2019-04-20T15:19:41.369Z,35.17
2019-04-20T15:22:41.630Z,34.76
2019-04-20T15:25:11.623Z,35.72
2019-04-20T15:27:44.025Z,35.48
2019-04-20T15:30:12.109Z,34.91
2019-04-20T15:32:40.961Z,35.02
2019-04-20T15:35:11.010Z,35.08
2019-04-20T15:37:41.263Z,34.09
2019-04-20T15:40:10.921Z,35.57
2019-04-20T15:42:53.247Z,35.22
2019-04-20T15:45:11.445Z,34.48
2019-04-20T15:47:40.848Z,33.90
2019-04-20T15:50:09.723Z,34.78
2019-04-20T15:52:44.992Z,35.04
2019-04-20T15:55:19.687Z,33.37
2019-04-20T15:57:41.003Z,34.99
2019-04-20T16:00:10.894Z,38.30
2019-04-20T16:02:53.679Z,42.12
2019-04-20T16:05:40.882Z,42.42
2019-04-20T16:08:48.200Z,42.04
2019-04-20T16:11:17.402Z,40.37
2019-04-20T16:13:49.993Z,40.19
2019-04-20T16:16:16.869Z,39.43
2019-04-20T16:18:46.698Z,40.81
2019-04-20T16:21:22.370Z,43.07
2019-04-20T16:23:56.929Z,43.77
2019-04-20T16:26:37.710Z,43.27
2019-04-20T16:29:08.077Z,41.37
2019-04-20T16:31:38.316Z,40.83
2019-04-20T16:34:07.626Z,42.77
2019-04-20T16:36:36.711Z,43.75
2019-04-20T16:39:09.037Z,43.17
2019-04-20T16:41:38.571Z,43.04
2019-04-20T16:44:07.330Z,42.48
2019-04-20T16:46:38.325Z,42.14
2019-04-20T16:49:08.433Z,40.23
2019-04-20T16:51:37.255Z,38.39
2019-04-20T16:54:05.994Z,37.01
2019-04-20T16:56:35.035Z,36.27
2019-04-20T16:59:07.067Z,36.37
2019-04-20T17:01:35.260Z,34.71
2019-04-20T17:04:10.703Z,33.77
2019-04-20T17:06:35.994Z,32.90
2019-04-20T17:09:07.013Z,32.93
2019-04-20T17:11:36.281Z,32.90
2019-04-20T17:14:06.519Z,32.99
2019-04-20T17:16:35.609Z,32.76
2019-04-20T17:19:05.832Z,32.57
2019-04-20T17:21:37.233Z,33.54
2019-04-20T17:24:07.197Z,33.08
2019-04-20T17:26:48.405Z,32.03
2019-04-20T17:29:23.932Z,31.36
2019-04-20T17:32:03.153Z,30.00
2019-04-20T17:34:46.877Z,28.71
2019-04-20T17:37:02.405Z,27.79
2019-04-20T17:39:40.875Z,27.05
2019-04-20T17:42:17.266Z,26.27
2019-04-20T17:44:47.295Z,25.68
2019-04-20T17:47:21.512Z,24.83
2019-04-20T17:49:51.576Z,24.36
2019-04-20T17:52:27.710Z,23.78
2019-04-20T17:54:47.916Z,23.14
2019-04-20T17:57:17.249Z,22.58
2019-04-20T17:59:53.259Z,22.15
2019-04-20T18:02:58.950Z,21.74
2019-04-20T18:05:49.868Z,21.66
2019-04-20T18:08:22.083Z,21.33
2019-04-20T18:10:47.507Z,21.12
2019-04-20T18:13:13.734Z,20.87
2019-04-20T18:15:49.091Z,20.60
2019-04-20T18:18:40.885Z,20.45
2019-04-20T18:21:18.992Z,20.26
2019-04-20T18:23:51.674Z,19.95
2019-04-20T18:26:42.978Z,19.78
2019-04-20T18:29:14.968Z,19.65
2019-04-20T18:31:37.511Z,19.48
2019-04-20T18:34:20.277Z,19.35
2019-04-20T18:36:48.241Z,19.17
2019-04-20T18:39:27.690Z,19.00
2019-04-20T18:41:56.694Z,18.88
2019-04-20T18:44:27.950Z,18.80
2019-04-20T18:47:30.180Z,18.65
2019-04-20T18:49:38.574Z,18.60
2019-04-20T18:51:57.764Z,18.49
2019-04-20T18:54:32.898Z,18.32
2019-04-20T18:57:01.280Z,18.17
2019-04-20T18:59:40.560Z,18.06
2019-04-20T19:02:06.803Z,18.00
2019-04-20T19:04:37.581Z,17.97
2019-04-20T19:07:07.915Z,17.91
2019-04-20T19:09:39.114Z,17.89
2019-04-20T19:12:12.692Z,17.75
2019-04-20T19:15:28.078Z,17.60
2019-04-20T19:18:17.312Z,17.50
2019-04-20T19:20:43.494Z,17.26
2019-04-20T19:23:14.646Z,17.05
2019-04-20T19:25:45.778Z,16.94
2019-04-20T19:28:21.611Z,16.78
2019-04-20T19:31:00.073Z,16.78
2019-04-20T19:33:34.247Z,16.73
2019-04-20T19:36:04.801Z,16.68
2019-04-20T19:38:35.300Z,16.57
2019-04-20T19:41:07.072Z,16.48
2019-04-20T19:43:36.165Z,16.34
2019-04-20T19:46:35.573Z,16.26
2019-04-20T19:48:40.592Z,16.23
2019-04-20T19:51:24.042Z,16.21
2019-04-20T19:53:56.895Z,16.08
2019-04-20T19:56:16.625Z,15.97
2019-04-20T19:58:53.709Z,15.84
2019-04-20T20:01:09.303Z,15.79
2019-04-20T20:03:39.608Z,15.64
2019-04-20T20:06:13.154Z,15.54
2019-04-20T20:08:43.455Z,15.47
2019-04-20T20:11:20.944Z,15.37
2019-04-20T20:13:48.559Z,15.27
2019-04-20T20:16:23.530Z,15.18
2019-04-20T20:18:59.872Z,15.07
2019-04-20T20:21:28.723Z,15.01
2019-04-20T20:23:50.309Z,14.90
2019-04-20T20:26:29.026Z,14.84
2019-04-20T20:29:03.509Z,14.64
2019-04-20T20:31:37.815Z,14.64
2019-04-20T20:34:09.681Z,14.52
2019-04-20T20:36:38.325Z,14.48
2019-04-20T20:39:04.501Z,14.40
2019-04-20T20:41:46.711Z,14.28
2019-04-20T20:44:14.005Z,14.13
2019-04-20T20:46:48.754Z,14.05
2019-04-20T20:49:29.576Z,13.98
2019-04-20T20:51:54.548Z,13.90
2019-04-20T20:54:25.750Z,13.82
2019-04-20T20:56:49.946Z,13.83
2019-04-20T20:59:27.532Z,13.67
2019-04-20T21:01:55.254Z,13.67
2019-04-20T21:04:17.515Z,13.55
2019-04-20T21:06:48.625Z,13.43
2019-04-20T21:09:18.613Z,13.35
2019-04-20T21:11:51.126Z,13.26
2019-04-20T21:14:26.102Z,13.16
2019-04-20T21:17:01.317Z,13.04
2019-04-20T21:19:42.002Z,12.92
2019-04-20T21:22:02.800Z,12.84
2019-04-20T21:24:33.626Z,12.72
2019-04-20T21:27:07.891Z,12.63
2019-04-20T21:29:41.419Z,12.54
2019-04-20T21:32:10.894Z,12.38
2019-04-20T21:34:44.446Z,12.38
2019-04-20T21:37:12.708Z,12.34
2019-04-20T21:39:46.569Z,12.28
2019-04-20T21:42:19.090Z,12.18
2019-04-20T21:44:48.185Z,12.26
2019-04-20T21:47:22.278Z,12.34
2019-04-20T21:49:57.837Z,12.16
2019-04-20T21:52:27.191Z,12.04
2019-04-20T21:54:49.982Z,11.98
2019-04-20T21:57:20.132Z,12.00
2019-04-20T21:59:53.596Z,11.96
2019-04-20T22:02:28.514Z,11.83
2019-04-20T22:04:53.523Z,11.69
2019-04-20T22:07:23.685Z,11.56
2019-04-20T22:09:55.375Z,11.46
2019-04-20T22:12:28.532Z,11.41
2019-04-20T22:15:03.958Z,11.34
2019-04-20T22:17:30.949Z,11.20
2019-04-20T22:20:12.103Z,11.11
2019-04-20T22:22:46.896Z,11.10
2019-04-20T22:25:23.523Z,11.03
2019-04-20T22:27:35.203Z,11.01
2019-04-20T22:30:06.475Z,11.12
2019-04-20T22:32:42.642Z,11.13
2019-04-20T22:35:13.469Z,11.07
2019-04-20T22:37:47.765Z,11.02
2019-04-20T22:40:23.450Z,10.96
2019-04-20T22:42:54.313Z,10.96
2019-04-20T22:45:21.215Z,10.93
2019-04-20T22:47:54.979Z,10.84
2019-04-20T22:50:38.260Z,10.82
2019-04-20T22:53:12.238Z,10.86
2019-04-20T22:55:47.799Z,10.89
2019-04-20T22:58:03.263Z,10.87
2019-04-20T23:00:38.662Z,10.87
2019-04-20T23:03:00.843Z,10.89
2019-04-20T23:05:31.006Z,10.85
2019-04-20T23:08:00.794Z,10.83
2019-04-20T23:10:34.726Z,10.82
2019-04-20T23:13:03.127Z,10.85
2019-04-20T23:15:34.205Z,10.82
2019-04-20T23:18:04.314Z,10.81
2019-04-20T23:20:38.713Z,10.78
2019-04-20T23:23:11.093Z,10.79
2019-04-20T23:25:39.050Z,10.73
2019-04-20T23:28:11.440Z,10.69
2019-04-20T23:30:42.299Z,10.76
2019-04-20T23:33:11.880Z,10.74
2019-04-20T23:35:43.766Z,10.65
2019-04-20T23:38:18.017Z,10.56
2019-04-20T23:40:45.819Z,10.50
2019-04-20T23:43:24.993Z,10.46
2019-04-20T23:46:19.406Z,10.40
2019-04-20T23:48:52.096Z,10.32
2019-04-20T23:51:41.834Z,10.26
2019-04-20T23:54:04.687Z,10.17
2019-04-20T23:56:25.560Z,10.13
2019-04-20T23:58:58.098Z,10.05
